X  Sluiten METAR luchtvaart weer gegevens      EHLW Leeuwarden Air Base
Temperatuur
14°C Temperatuur
11°C Dauwpunt
82% Vochtigheid



Wind
8 KM/U
5 MPH
2 M/S
4 KTS



60°
ONO
Huidig weer

Wat bewolking Wat bewolking
Luchtdruk 1013.92 (hPa) - 29.94 (inHg)
Zicht 6.2 (mijl) - 10 (km)
Vliegveld
Vliegveld code EHLW

Locatie : Leeuwarden Air Base
Afstand: 30 (km)

Metar:
EHLW 032155Z AUTO 06004KT 360V090 9999 FEW053 BKN062 14/11 Q1014 BLU

Tijd: 03-08-2021 23:55 CEST